Detall de PIREP

Printer-friendly versionPDF version

[2012/01/15 09:09:00]
Flight IATA:CT0002
Pilot Number:042
Company ICAO:CAT
Aircraft Type:B738/F
PAX:150
Departing Airport: LFLL
Destination Airport: LFKJ
Alternate Airport:LFMN
Online: VATSIM
Route:ROMAM T43 BEPER/N0450F290 UM728 RETNO UM728 KOLON UM623 OMARD UM623 VAREK
Flight Level:F290
No Slew and time accel
No pause
Crash detect
Detect pilot in Cockpit between each 30 and 45 minutes
09:09 Zero fuel Weight: 91713 Lbs, Fuel Weight: 46056 Lbs
09:09 VATSIM:LFLL 150900Z 00000KT 0100 R36L/0325N R18R/0325N R36R/0325N R18L/0300N FZFG VV/// M05/M05 Q1021 NOSIG
09:09 VATSIM:LFKJ 150900Z 04006KT 9999 FEW033 08/02 Q1017 NOSIG
09:09 VOICE CATALONIAN
09:15 Parking Brakes off
09:22 Take-off
09:22 Take off Weight: 137548 Lbs
09:22 Wind: 003º @ 002 Knots Heading: 355º
09:22 POS N45º 43´ 41´´ E005º 05´ 17´´
09:22 Gear Up: 174 Knots
09:22 Flaps:4 at 174 Knots
09:23 Flaps:3 at 208 Knots
09:23 Flaps:2 at 233 Knots
09:23 Flaps:1 at 249 Knots
09:24 Flaps:0 at 250 Knots
09:36 TOC
09:36 Fuel Weight: 42406 Lb
09:37 Wind:202º@008 Knots Heading: 135º Ground Speed: 441 Knots Altitude 29183 ft
09:52 Wind:052º@007 Knots Heading: 141º Ground Speed: 449 Knots Altitude 29153 ft
09:56 TOD
09:56 Fuel Weight: 40239 Lb
10:07 Wind:016º@003 Knots Heading: 156º Ground Speed: 308 Knots Altitude 15843 ft
10:13 Flaps:1 at 242 Knots
10:19 Flaps:2 at 185 Knots
10:21 Flaps:3 at 177 Knots
10:22 Wind:047º@006 Knots Heading: 036º Ground Speed: 168 Knots Altitude 2696 ft
10:22 Flaps:4 at 171 Knots
10:23 Flaps:5 at 152 Knots
10:24 Gear Down: 152 Knots
10:24 Flaps:6 at 148 Knots
10:24 Flaps:7 at 141 Knots
10:24 Flaps:8 at 136 Knots
10:28 TouchDown:Rate -363 ft/min Speed: 118 Knots
10:28 VATSIM:LFKJ 151000Z 04003KT 9999 FEW033 11/03 Q1017 NOSIG
10:28 Land
10:28 Wind:040º@006 Knots
10:28 Heading: 025º
10:28 Flight Duration: 01:06
10:28 Landing Weight: 130289 Lbs
10:28 POS N41º 55´ 26´´ E008º 48´ 09´´
10:31 Parking brakes on
10:31 Block to Block Duration: 01:16
10:31 Final Fuel: 38333 Lbls
10:31 Spent Fuel: 7722 Lbls
10:31 Flight Length: 364 NM
10:31 TOD Land Length: 137 NM

Exportar CSV

Powered by Drupal - Modified by Danger4k